createdAt,value
2018-11-01T00:02:12.331Z,9.17
2018-11-01T00:04:40.510Z,6.70
2018-11-01T00:07:08.754Z,7.23
2018-11-01T00:09:36.965Z,7.63
2018-11-01T00:12:05.314Z,6.50
2018-11-01T00:14:33.498Z,7.73
2018-11-01T00:17:01.691Z,7.93
2018-11-01T00:19:29.916Z,6.43
2018-11-01T00:21:58.130Z,7.43
2018-11-01T00:24:26.348Z,8.90
2018-11-01T00:26:54.579Z,8.53
2018-11-01T00:29:22.948Z,7.33
2018-11-01T00:31:51.127Z,6.43
2018-11-01T00:34:19.319Z,5.73
2018-11-01T00:36:47.544Z,5.60
2018-11-01T00:39:15.745Z,8.00
2018-11-01T00:41:43.942Z,6.10
2018-11-01T00:44:12.281Z,5.60
2018-11-01T00:46:40.460Z,5.17
2018-11-01T00:49:08.686Z,7.43
2018-11-01T00:51:36.878Z,6.50
2018-11-01T00:54:05.122Z,6.33
2018-11-01T00:56:33.285Z,6.57
2018-11-01T00:59:01.549Z,5.57
2018-11-01T01:01:29.746Z,5.93
2018-11-01T01:03:57.934Z,6.43
2018-11-01T01:06:26.113Z,4.73
2018-11-01T01:08:54.309Z,4.97
2018-11-01T01:11:22.470Z,5.17
2018-11-01T01:13:50.655Z,6.93
2018-11-01T01:16:18.825Z,5.60
2018-11-01T01:18:47.096Z,4.70
2018-11-01T01:21:15.411Z,5.23
2018-11-01T01:23:43.597Z,5.37
2018-11-01T01:26:11.789Z,4.37
2018-11-01T01:28:40.006Z,4.43
2018-11-01T01:31:08.270Z,5.13
2018-11-01T01:33:36.506Z,5.53
2018-11-01T01:36:04.766Z,5.37
2018-11-01T01:38:32.945Z,5.87
2018-11-01T01:41:01.172Z,5.03
2018-11-01T01:43:29.383Z,6.10
2018-11-01T01:45:57.572Z,4.77
2018-11-01T01:48:25.770Z,7.77
2018-11-01T01:50:54.135Z,6.73
2018-11-01T01:53:22.147Z,6.13
2018-11-01T01:55:50.374Z,5.93
2018-11-01T01:58:18.594Z,5.70
2018-11-01T02:00:46.848Z,5.70
2018-11-01T02:03:15.097Z,5.70
2018-11-01T02:05:43.318Z,5.90
2018-11-01T02:08:11.511Z,6.47
2018-11-01T02:10:39.718Z,5.83
2018-11-01T02:13:07.906Z,5.87
2018-11-01T02:15:36.121Z,6.03
2018-11-01T02:18:04.346Z,4.93
2018-11-01T02:20:32.574Z,4.93
2018-11-01T02:23:00.775Z,5.20
2018-11-01T02:25:29.030Z,5.80
2018-11-01T02:28:02.747Z,5.17
2018-11-01T02:30:30.974Z,5.43
2018-11-01T02:32:59.199Z,6.37
2018-11-01T02:35:29.962Z,5.73
2018-11-01T02:37:58.210Z,5.57
2018-11-01T02:40:26.385Z,6.43
2018-11-01T02:42:54.576Z,6.30
2018-11-01T02:45:22.766Z,6.63
2018-11-01T02:47:50.949Z,5.73
2018-11-01T02:50:19.178Z,6.30
2018-11-01T02:52:47.367Z,5.27
2018-11-01T02:55:15.561Z,5.57
2018-11-01T02:57:43.761Z,5.30
2018-11-01T03:00:13.762Z,4.90
2018-11-01T03:02:41.922Z,5.73
2018-11-01T03:05:10.919Z,5.30
2018-11-01T03:07:39.161Z,5.77
2018-11-01T03:10:08.811Z,5.80
2018-11-01T03:12:37.025Z,5.97
2018-11-01T03:15:06.237Z,5.70
2018-11-01T03:17:34.513Z,10.97
2018-11-01T03:20:02.723Z,6.17
2018-11-01T03:22:30.962Z,6.33
2018-11-01T03:24:59.173Z,5.57
2018-11-01T03:27:27.400Z,5.80
2018-11-01T03:29:55.602Z,6.17
2018-11-01T03:32:23.801Z,5.90
2018-11-01T03:34:52.044Z,5.40
2018-11-01T03:37:20.276Z,6.43
2018-11-01T03:39:48.529Z,6.07
2018-11-01T03:42:16.778Z,5.23
2018-11-01T03:44:44.997Z,6.40
2018-11-01T03:47:13.229Z,6.13
2018-11-01T03:49:41.482Z,5.83
2018-11-01T03:52:09.703Z,6.13
2018-11-01T03:54:37.974Z,5.87
2018-11-01T03:57:06.118Z,6.30
2018-11-01T03:59:34.356Z,5.97
2018-11-01T04:02:02.576Z,7.17
2018-11-01T04:04:30.772Z,5.90
2018-11-01T04:06:58.994Z,5.97
2018-11-01T04:09:27.246Z,5.77
2018-11-01T04:11:55.444Z,6.40
2018-11-01T04:14:23.658Z,4.83
2018-11-01T04:16:51.868Z,5.00
2018-11-01T04:19:20.055Z,4.20
2018-11-01T04:21:54.947Z,4.57
2018-11-01T04:24:23.169Z,4.60
2018-11-01T04:26:51.349Z,5.50
2018-11-01T04:29:19.590Z,5.30
2018-11-01T04:31:47.813Z,5.90
2018-11-01T04:34:15.994Z,5.47
2018-11-01T04:36:44.219Z,5.33
2018-11-01T04:39:12.459Z,6.17
2018-11-01T04:41:40.682Z,5.77
2018-11-01T04:44:08.923Z,4.77
2018-11-01T04:46:37.082Z,5.30
2018-11-01T04:49:05.653Z,4.73
2018-11-01T04:51:33.881Z,5.60
2018-11-01T04:54:02.073Z,4.60
2018-11-01T04:56:30.274Z,5.27
2018-11-01T04:58:58.485Z,5.23
2018-11-01T05:01:26.700Z,4.80
2018-11-01T05:03:55.424Z,5.40
2018-11-01T05:06:23.679Z,5.40
2018-11-01T05:08:52.271Z,5.03
2018-11-01T05:11:20.434Z,5.03
2018-11-01T05:13:49.269Z,5.37
2018-11-01T05:16:17.522Z,5.37
2018-11-01T05:18:46.028Z,5.50
2018-11-01T05:21:15.035Z,5.10
2018-11-01T05:23:43.210Z,5.90
2018-11-01T05:26:11.448Z,5.47
2018-11-01T05:28:39.649Z,5.20
2018-11-01T05:31:07.847Z,5.30
2018-11-01T05:33:36.045Z,4.93
2018-11-01T05:36:04.557Z,6.10
2018-11-01T05:38:32.733Z,5.23
2018-11-01T05:41:00.992Z,5.90
2018-11-01T05:43:29.802Z,5.90
2018-11-01T05:45:58.620Z,5.90
2018-11-01T05:48:26.836Z,6.40
2018-11-01T05:50:55.054Z,6.17
2018-11-01T05:53:23.304Z,6.97
2018-11-01T05:55:51.532Z,6.93
2018-11-01T05:58:19.727Z,6.50
2018-11-01T06:00:47.931Z,6.60
2018-11-01T06:03:16.147Z,6.70
2018-11-01T06:05:44.467Z,6.83
2018-11-01T06:08:15.259Z,6.57
2018-11-01T06:10:43.471Z,6.43
2018-11-01T06:13:11.762Z,5.97
2018-11-01T06:15:39.961Z,6.70
2018-11-01T06:18:08.163Z,6.60
2018-11-01T06:20:36.423Z,6.43
2018-11-01T06:23:04.527Z,6.70
2018-11-01T06:25:32.730Z,5.80
2018-11-01T06:28:00.970Z,5.50
2018-11-01T06:30:29.252Z,5.90
2018-11-01T06:32:57.614Z,5.27
2018-11-01T06:35:33.338Z,5.67
2018-11-01T06:38:01.645Z,5.87
2018-11-01T06:40:29.864Z,5.80
2018-11-01T06:42:58.115Z,5.63
2018-11-01T06:45:26.313Z,5.63
2018-11-01T06:47:54.493Z,5.30
2018-11-01T06:50:22.698Z,5.63
2018-11-01T06:52:50.911Z,5.73
2018-11-01T06:55:19.106Z,5.73
2018-11-01T06:57:47.300Z,5.83
2018-11-01T07:00:16.028Z,5.80
2018-11-01T07:02:44.222Z,5.20
2018-11-01T07:05:12.412Z,6.40
2018-11-01T07:07:40.674Z,5.10
2018-11-01T07:10:11.318Z,5.83
2018-11-01T07:12:39.510Z,5.93
2018-11-01T07:15:09.353Z,6.37
2018-11-01T07:17:37.944Z,5.57
2018-11-01T07:20:06.902Z,5.77
2018-11-01T07:22:35.351Z,6.20
2018-11-01T07:25:03.542Z,5.93
2018-11-01T07:27:31.747Z,6.10
2018-11-01T07:29:59.953Z,6.10
2018-11-01T07:32:28.186Z,6.13
2018-11-01T07:34:56.353Z,6.83
2018-11-01T07:37:24.546Z,7.20
2018-11-01T07:39:52.827Z,7.40
2018-11-01T07:42:20.976Z,7.37
2018-11-01T07:44:49.149Z,7.70
2018-11-01T07:47:17.354Z,7.37
2018-11-01T07:49:45.590Z,7.50
2018-11-01T07:52:13.853Z,6.93
2018-11-01T07:54:42.056Z,6.93
2018-11-01T07:57:10.240Z,7.13
2018-11-01T07:59:38.478Z,7.53
2018-11-01T08:02:06.702Z,7.30
2018-11-01T08:04:35.056Z,7.97
2018-11-01T08:07:03.241Z,7.73
2018-11-01T08:09:31.480Z,7.17
2018-11-01T08:11:59.670Z,7.90
2018-11-01T08:14:27.866Z,7.73
2018-11-01T08:16:56.096Z,7.40
2018-11-01T08:19:24.374Z,7.97
2018-11-01T08:21:52.717Z,6.87
2018-11-01T08:24:20.950Z,7.37
2018-11-01T08:26:49.138Z,7.27
2018-11-01T08:29:17.378Z,7.23
2018-11-01T08:31:45.623Z,7.73
2018-11-01T08:34:13.823Z,6.80
2018-11-01T08:36:42.122Z,6.80
2018-11-01T08:39:10.392Z,6.93
2018-11-01T08:41:38.557Z,7.37
2018-11-01T08:44:07.027Z,7.50
2018-11-01T08:46:35.234Z,6.97
2018-11-01T08:49:03.490Z,7.00
2018-11-01T08:51:31.694Z,7.30
2018-11-01T08:53:59.978Z,7.83
2018-11-01T08:56:28.157Z,7.30
2018-11-01T08:58:56.383Z,7.07
2018-11-01T09:01:24.685Z,7.70
2018-11-01T09:03:52.901Z,7.77
2018-11-01T09:06:21.155Z,7.67
2018-11-01T09:08:49.384Z,9.97
2018-11-01T09:11:17.599Z,7.57
2018-11-01T09:13:45.833Z,8.10
2018-11-01T09:16:14.032Z,8.00
2018-11-01T09:18:42.244Z,12.17
2018-11-01T09:21:10.489Z,8.27
2018-11-01T09:23:38.901Z,10.50
2018-11-01T09:26:07.138Z,11.30
2018-11-01T09:28:35.390Z,10.40
2018-11-01T09:31:03.598Z,8.47
2018-11-01T09:33:31.850Z,7.13
2018-11-01T09:36:00.049Z,11.10
2018-11-01T09:38:28.289Z,6.10
2018-11-01T09:40:56.512Z,9.83
2018-11-01T09:43:24.771Z,7.50
2018-11-01T09:45:52.977Z,7.23
2018-11-01T09:48:21.240Z,6.43
2018-11-01T09:50:49.467Z,6.73
2018-11-01T09:53:17.686Z,6.67
2018-11-01T09:55:46.027Z,6.10
2018-11-01T09:58:14.224Z,7.97
2018-11-01T10:00:42.491Z,5.97
2018-11-01T10:03:10.701Z,5.93
2018-11-01T10:05:38.952Z,5.90
2018-11-01T10:08:07.150Z,6.03
2018-11-01T10:10:35.400Z,6.53
2018-11-01T10:13:03.679Z,8.07
2018-11-01T10:15:32.056Z,7.27
2018-11-01T10:18:00.595Z,6.33
2018-11-01T10:20:28.333Z,6.23
2018-11-01T10:22:56.567Z,6.40
2018-11-01T10:25:24.843Z,5.80
2018-11-01T10:27:53.019Z,6.93
2018-11-01T10:30:21.697Z,7.10
2018-11-01T10:32:49.912Z,6.37
2018-11-01T10:35:18.660Z,6.73
2018-11-01T10:37:46.875Z,7.87
2018-11-01T10:40:16.466Z,6.33
2018-11-01T10:42:44.725Z,6.57
2018-11-01T10:45:13.002Z,6.37
2018-11-01T10:47:41.297Z,6.27
2018-11-01T10:50:12.207Z,6.70
2018-11-01T10:52:40.406Z,6.77
2018-11-01T10:55:09.466Z,6.90
2018-11-01T10:57:37.674Z,6.33
2018-11-01T11:00:06.870Z,6.60
2018-11-01T11:02:35.034Z,6.10
2018-11-01T11:05:03.318Z,6.90
2018-11-01T11:07:31.566Z,6.20
2018-11-01T11:09:59.774Z,7.30
2018-11-01T11:12:28.033Z,6.37
2018-11-01T11:14:56.250Z,5.97
2018-11-01T11:17:24.486Z,7.47
2018-11-01T11:19:52.828Z,7.77
2018-11-01T11:22:21.037Z,6.60
2018-11-01T11:24:49.241Z,7.70
2018-11-01T11:27:17.492Z,7.10
2018-11-01T11:29:45.698Z,7.37
2018-11-01T11:32:13.939Z,7.60
2018-11-01T11:34:42.147Z,7.53
2018-11-01T11:37:10.388Z,7.00
2018-11-01T11:39:38.645Z,7.40
2018-11-01T11:42:06.869Z,8.07
2018-11-01T11:44:35.060Z,7.67
2018-11-01T11:47:03.270Z,8.13
2018-11-01T11:49:31.457Z,7.70
2018-11-01T11:51:59.762Z,8.20
2018-11-01T11:54:27.997Z,8.60
2018-11-01T11:56:56.295Z,8.13
2018-11-01T11:59:24.393Z,8.30
2018-11-01T12:01:52.670Z,16.77
2018-11-01T12:04:20.871Z,8.23
2018-11-01T12:06:49.106Z,8.73
2018-11-01T12:09:17.287Z,8.80
2018-11-01T12:11:45.522Z,8.77
2018-11-01T12:14:13.789Z,9.57
2018-11-01T12:16:41.910Z,9.17
2018-11-01T12:19:10.184Z,9.47
2018-11-01T12:21:38.373Z,9.33
2018-11-01T12:24:07.008Z,9.63
2018-11-01T12:26:35.242Z,8.90
2018-11-01T12:29:03.545Z,8.80
2018-11-01T12:31:31.682Z,10.03
2018-11-01T12:33:59.860Z,9.07
2018-11-01T12:36:28.107Z,9.20
2018-11-01T12:38:56.310Z,9.13
2018-11-01T12:41:24.553Z,8.80
2018-11-01T12:43:52.830Z,9.23
2018-11-01T12:46:21.011Z,9.43
2018-11-01T12:48:49.260Z,9.27
2018-11-01T12:51:17.486Z,10.47
2018-11-01T12:53:45.710Z,10.33
2018-11-01T12:56:13.959Z,9.93
2018-11-01T12:58:42.151Z,10.50
2018-11-01T13:01:10.345Z,9.67
2018-11-01T13:03:38.700Z,9.57
2018-11-01T13:06:06.909Z,10.07
2018-11-01T13:08:35.179Z,9.87
2018-11-01T13:11:03.378Z,9.77
2018-11-01T13:13:31.638Z,10.83
2018-11-01T13:15:59.830Z,9.20
2018-11-01T13:18:28.016Z,9.03
2018-11-01T13:20:56.262Z,9.30
2018-11-01T13:23:24.457Z,8.77
2018-11-01T13:25:52.691Z,7.80
2018-11-01T13:28:20.947Z,7.40
2018-11-01T13:30:49.095Z,7.53
2018-11-01T13:33:17.350Z,7.27
2018-11-01T13:35:45.542Z,6.33
2018-11-01T13:38:13.747Z,6.33
2018-11-01T13:40:42.290Z,6.20
2018-11-01T13:43:10.176Z,6.00
2018-11-01T13:45:38.397Z,5.80
2018-11-01T13:48:06.783Z,5.77
2018-11-01T13:50:34.842Z,6.10
2018-11-01T13:53:03.044Z,6.20
2018-11-01T13:55:31.221Z,5.37
2018-11-01T13:57:59.417Z,5.40
2018-11-01T14:00:27.646Z,5.77
2018-11-01T14:02:55.842Z,5.93
2018-11-01T14:05:24.031Z,6.37
2018-11-01T14:07:52.243Z,6.50
2018-11-01T14:10:20.478Z,5.30
2018-11-01T14:12:48.693Z,5.53
2018-11-01T14:15:17.437Z,5.93
2018-11-01T14:17:45.167Z,5.70
2018-11-01T14:20:13.959Z,5.80
2018-11-01T14:22:42.169Z,5.00
2018-11-01T14:25:11.575Z,5.13
2018-11-01T14:27:39.836Z,5.40
2018-11-01T14:30:10.345Z,5.93
2018-11-01T14:32:38.795Z,5.60
2018-11-01T14:35:07.098Z,5.60
2018-11-01T14:37:35.291Z,5.00
2018-11-01T14:40:04.121Z,5.30
2018-11-01T14:42:32.337Z,5.80
2018-11-01T14:45:00.535Z,6.00
2018-11-01T14:47:28.721Z,6.23
2018-11-01T14:49:57.101Z,5.87
2018-11-01T14:52:25.673Z,6.43
2018-11-01T14:54:54.738Z,5.60
2018-11-01T14:57:22.989Z,5.90
2018-11-01T14:59:50.616Z,6.47
2018-11-01T15:02:18.178Z,6.30
2018-11-01T15:04:46.386Z,5.73
2018-11-01T15:07:14.590Z,6.40
2018-11-01T15:09:42.951Z,5.63
2018-11-01T15:12:11.215Z,6.50
2018-11-01T15:14:39.419Z,6.97
2018-11-01T15:17:07.618Z,7.63
2018-11-01T15:19:35.797Z,6.50
2018-11-01T15:22:04.008Z,6.80
2018-11-01T15:24:32.218Z,6.93
2018-11-01T15:27:00.443Z,6.90
2018-11-01T15:29:28.636Z,6.83
2018-11-01T15:32:01.245Z,7.47
2018-11-01T15:34:30.137Z,7.33
2018-11-01T15:36:58.337Z,7.17
2018-11-01T15:39:26.558Z,7.40
2018-11-01T15:41:54.830Z,7.67
2018-11-01T15:44:23.042Z,8.10
2018-11-01T15:46:51.273Z,7.17
2018-11-01T15:49:19.511Z,6.50
2018-11-01T15:51:47.753Z,7.73
2018-11-01T15:54:16.028Z,7.47
2018-11-01T15:56:44.287Z,7.97
2018-11-01T15:59:12.530Z,8.43
2018-11-01T16:01:40.719Z,9.00
2018-11-01T16:04:09.073Z,7.83
2018-11-01T16:06:37.234Z,9.33
2018-11-01T16:09:08.736Z,8.37
2018-11-01T16:11:37.255Z,8.20
2018-11-01T16:14:05.719Z,6.50
2018-11-01T16:16:33.926Z,6.13
2018-11-01T16:19:02.130Z,6.30
2018-11-01T16:21:30.333Z,5.67
2018-11-01T16:23:58.536Z,4.07
2018-11-01T16:26:26.730Z,5.13
2018-11-01T16:28:54.924Z,6.23
2018-11-01T16:31:23.122Z,5.43
2018-11-01T16:33:51.330Z,4.23
2018-11-01T16:36:19.546Z,5.17
2018-11-01T16:38:47.754Z,4.90
2018-11-01T16:41:15.960Z,5.80
2018-11-01T16:43:44.180Z,4.97
2018-11-01T16:46:12.371Z,4.13
2018-11-01T16:48:40.598Z,4.57
2018-11-01T16:51:08.907Z,3.53
2018-11-01T16:53:36.997Z,2.57
2018-11-01T16:56:05.781Z,3.47
2018-11-01T16:58:34.007Z,5.37
2018-11-01T17:01:02.285Z,8.87
2018-11-01T17:03:30.568Z,4.07
2018-11-01T17:05:58.801Z,3.53
2018-11-01T17:08:28.517Z,4.50
2018-11-01T17:10:57.323Z,4.00
2018-11-01T17:13:25.514Z,4.07
2018-11-01T17:15:53.689Z,4.90
2018-11-01T17:18:21.906Z,15.33
2018-11-01T17:20:50.140Z,4.50
2018-11-01T17:23:18.313Z,3.83
2018-11-01T17:25:46.565Z,4.33
2018-11-01T17:28:14.952Z,4.67
2018-11-01T17:30:43.144Z,4.40
2018-11-01T17:33:11.370Z,4.80
2018-11-01T17:35:39.544Z,5.07
2018-11-01T17:38:07.784Z,7.07
2018-11-01T17:40:36.012Z,4.77
2018-11-01T17:43:04.279Z,6.20
2018-11-01T17:45:32.542Z,5.50
2018-11-01T17:48:07.073Z,6.07
2018-11-01T17:50:35.252Z,5.87
2018-11-01T17:53:03.508Z,5.40
2018-11-01T17:55:31.787Z,5.43
2018-11-01T17:58:00.034Z,5.80
2018-11-01T18:00:32.613Z,5.00
2018-11-01T18:03:00.950Z,5.60
2018-11-01T18:05:29.118Z,6.37
2018-11-01T18:07:57.386Z,7.67
2018-11-01T18:10:25.561Z,5.77
2018-11-01T18:12:53.761Z,6.13
2018-11-01T18:15:21.951Z,6.00
2018-11-01T18:17:50.165Z,5.17
2018-11-01T18:20:18.371Z,4.17
2018-11-01T18:22:46.545Z,4.33
2018-11-01T18:25:16.049Z,3.97
2018-11-01T18:27:44.569Z,7.87
2018-11-01T18:30:16.431Z,8.60
2018-11-01T18:32:45.071Z,6.77
2018-11-01T18:35:13.190Z,6.37
2018-11-01T18:37:42.063Z,4.77
2018-11-01T18:40:12.361Z,5.40
2018-11-01T18:42:40.772Z,4.70
2018-11-01T18:45:10.453Z,5.73
2018-11-01T18:47:38.661Z,6.13
2018-11-01T18:50:07.643Z,6.20
2018-11-01T18:52:35.880Z,6.33
2018-11-01T18:55:04.202Z,6.30
2018-11-01T18:57:32.380Z,6.13
2018-11-01T19:00:00.598Z,5.70
2018-11-01T19:02:28.785Z,5.03
2018-11-01T19:04:56.970Z,4.40
2018-11-01T19:07:25.145Z,4.00
2018-11-01T19:09:53.344Z,4.13
2018-11-01T19:12:21.577Z,3.90
2018-11-01T19:14:49.795Z,4.10
2018-11-01T19:17:18.017Z,3.60
2018-11-01T19:19:46.246Z,3.47
2018-11-01T19:22:14.459Z,3.50
2018-11-01T19:24:42.681Z,3.33
2018-11-01T19:27:11.039Z,3.20
2018-11-01T19:29:39.110Z,3.03
2018-11-01T19:32:07.358Z,3.57
2018-11-01T19:34:35.873Z,3.10
2018-11-01T19:37:03.891Z,3.23
2018-11-01T19:39:32.150Z,3.40
2018-11-01T19:42:00.361Z,3.70
2018-11-01T19:44:28.602Z,3.20
2018-11-01T19:46:56.798Z,2.90
2018-11-01T19:49:25.083Z,3.07
2018-11-01T19:51:53.550Z,2.70
2018-11-01T19:54:21.774Z,2.80
2018-11-01T19:56:49.939Z,2.70
2018-11-01T19:59:18.135Z,3.00
2018-11-01T20:01:46.369Z,2.37
2018-11-01T20:04:14.729Z,2.40
2018-11-01T20:06:42.940Z,2.70
2018-11-01T20:09:11.218Z,2.70
2018-11-01T20:11:40.306Z,1.97
2018-11-01T20:14:08.507Z,2.30
2018-11-01T20:16:36.722Z,2.20
2018-11-01T20:19:05.064Z,2.10
2018-11-01T20:21:33.191Z,1.73
2018-11-01T20:24:01.360Z,2.00
2018-11-01T20:26:29.541Z,2.00
2018-11-01T20:28:57.737Z,2.40
2018-11-01T20:31:26.048Z,2.40
2018-11-01T20:33:54.102Z,2.10
2018-11-01T20:36:22.313Z,1.67
2018-11-01T20:38:50.589Z,2.40
2018-11-01T20:41:18.822Z,2.27
2018-11-01T20:43:47.086Z,2.23
2018-11-01T20:46:15.275Z,2.00
2018-11-01T20:48:43.446Z,1.90
2018-11-01T20:51:11.614Z,1.60
2018-11-01T20:53:39.798Z,1.43
2018-11-01T20:56:08.036Z,1.60
2018-11-01T20:58:36.264Z,1.80
2018-11-01T21:01:04.602Z,1.70
2018-11-01T21:03:32.863Z,1.80
2018-11-01T21:06:01.066Z,1.80
2018-11-01T21:08:29.475Z,1.50
2018-11-01T21:10:58.292Z,1.50
2018-11-01T21:13:26.529Z,1.43
2018-11-01T21:15:54.721Z,1.80
2018-11-01T21:18:22.930Z,1.50
2018-11-01T21:20:51.126Z,1.73
2018-11-01T21:23:19.360Z,1.70
2018-11-01T21:25:47.569Z,1.60
2018-11-01T21:28:15.762Z,1.87
2018-11-01T21:30:43.938Z,1.70
2018-11-01T21:33:12.208Z,1.43
2018-11-01T21:35:40.498Z,1.40
2018-11-01T21:38:08.628Z,1.40
2018-11-01T21:40:36.826Z,1.70
2018-11-01T21:43:05.301Z,1.50
2018-11-01T21:45:33.496Z,1.60
2018-11-01T21:48:01.693Z,1.30
2018-11-01T21:50:29.894Z,1.30
2018-11-01T21:52:58.117Z,1.10
2018-11-01T21:55:26.350Z,1.40
2018-11-01T21:57:54.516Z,1.27
2018-11-01T22:00:22.727Z,1.17
2018-11-01T22:02:51.002Z,1.27
2018-11-01T22:05:19.205Z,1.33
2018-11-01T22:07:47.429Z,1.30
2018-11-01T22:10:15.642Z,1.00
2018-11-01T22:12:43.903Z,1.00
2018-11-01T22:15:12.748Z,0.93
2018-11-01T22:17:41.610Z,1.40
2018-11-01T22:20:10.504Z,1.00
2018-11-01T22:22:38.716Z,1.00
2018-11-01T22:25:07.590Z,1.00
2018-11-01T22:27:35.933Z,1.13
2018-11-01T22:30:05.123Z,1.00
2018-11-01T22:32:33.370Z,1.10
2018-11-01T22:35:01.601Z,1.20
2018-11-01T22:37:29.841Z,0.90
2018-11-01T22:39:58.047Z,1.33
2018-11-01T22:42:26.282Z,1.20
2018-11-01T22:44:54.504Z,1.00
2018-11-01T22:47:22.728Z,1.43
2018-11-01T22:49:50.940Z,0.70
2018-11-01T22:52:19.231Z,1.20
2018-11-01T22:54:47.447Z,1.03
2018-11-01T22:57:15.653Z,1.10
2018-11-01T22:59:43.960Z,1.20
2018-11-01T23:02:12.207Z,1.13
2018-11-01T23:04:40.477Z,1.10
2018-11-01T23:07:08.681Z,1.20
2018-11-01T23:09:36.952Z,1.40
2018-11-01T23:12:05.791Z,1.40
2018-11-01T23:14:33.998Z,1.20
2018-11-01T23:17:02.295Z,1.40
2018-11-01T23:19:30.571Z,1.20
2018-11-01T23:21:58.797Z,1.17
2018-11-01T23:24:27.018Z,1.30
2018-11-01T23:27:00.908Z,1.13
2018-11-01T23:29:29.110Z,1.20
2018-11-01T23:31:57.338Z,1.27
2018-11-01T23:34:25.524Z,1.13
2018-11-01T23:36:59.057Z,1.40
2018-11-01T23:39:32.671Z,1.40
2018-11-01T23:42:06.306Z,1.07
2018-11-01T23:44:39.841Z,1.57
2018-11-01T23:47:13.457Z,1.10
2018-11-01T23:49:47.057Z,1.30
2018-11-01T23:52:20.644Z,1.10
2018-11-01T23:54:49.444Z,1.33
2018-11-01T23:57:17.846Z,1.30
2018-11-01T23:59:46.136Z,1.43
